createdAt,value
2018-08-16T00:00:27.106Z,76.10
2018-08-16T00:02:56.457Z,75.50
2018-08-16T00:05:25.783Z,75.80
2018-08-16T00:07:55.134Z,75.40
2018-08-16T00:10:24.426Z,76.20
2018-08-16T00:12:53.770Z,76.00
2018-08-16T00:15:23.522Z,75.90
2018-08-16T00:17:52.873Z,75.80
2018-08-16T00:20:22.188Z,76.50
2018-08-16T00:22:51.575Z,76.10
2018-08-16T00:25:20.930Z,76.10
2018-08-16T00:27:50.212Z,75.90
2018-08-16T00:30:20.280Z,76.80
2018-08-16T00:32:49.605Z,76.20
2018-08-16T00:35:18.968Z,76.00
2018-08-16T00:37:48.291Z,76.30
2018-08-16T00:40:18.600Z,76.90
2018-08-16T00:42:47.943Z,76.10
2018-08-16T00:45:17.285Z,76.00
2018-08-16T00:47:46.606Z,76.10
2018-08-16T00:50:16.540Z,76.00
2018-08-16T00:52:45.889Z,76.20
2018-08-16T00:55:15.493Z,76.30
2018-08-16T00:57:44.833Z,76.50
2018-08-16T01:00:16.752Z,76.40
2018-08-16T01:02:46.547Z,76.40
2018-08-16T01:05:15.879Z,76.30
2018-08-16T01:07:45.234Z,76.40
2018-08-16T01:10:15.025Z,76.10
2018-08-16T01:12:44.928Z,76.30
2018-08-16T01:15:16.300Z,76.40
2018-08-16T01:17:45.759Z,76.60
2018-08-16T01:20:15.174Z,76.90
2018-08-16T01:22:44.541Z,76.60
2018-08-16T01:25:13.896Z,77.30
2018-08-16T01:27:43.236Z,77.00
2018-08-16T01:30:12.560Z,76.90
2018-08-16T01:32:42.203Z,77.30
2018-08-16T01:35:11.549Z,77.00
2018-08-16T01:37:40.893Z,76.90
2018-08-16T01:40:10.288Z,76.90
2018-08-16T01:42:40.242Z,76.90
2018-08-16T01:45:10.346Z,77.10
2018-08-16T01:47:40.093Z,77.00
2018-08-16T01:50:09.543Z,77.10
2018-08-16T01:52:38.848Z,77.20
2018-08-16T01:55:08.811Z,77.40
2018-08-16T01:57:44.477Z,77.50
2018-08-16T02:00:13.811Z,77.70
2018-08-16T02:02:43.178Z,77.90
2018-08-16T02:05:12.579Z,77.80
2018-08-16T02:07:41.929Z,78.00
2018-08-16T02:10:11.270Z,77.90
2018-08-16T02:12:40.642Z,77.90
2018-08-16T02:15:12.238Z,78.40
2018-08-16T02:17:41.776Z,78.20
2018-08-16T02:20:13.516Z,78.40
2018-08-16T02:22:43.680Z,78.20
2018-08-16T02:25:13.111Z,79.00
2018-08-16T02:27:42.479Z,78.50
2018-08-16T02:30:12.061Z,78.50
2018-08-16T02:32:41.364Z,78.60
2018-08-16T02:35:10.702Z,78.60
2018-08-16T02:37:40.022Z,78.70
2018-08-16T02:40:10.139Z,78.50
2018-08-16T02:42:39.475Z,78.90
2018-08-16T02:45:08.854Z,78.50
2018-08-16T02:47:38.198Z,78.90
2018-08-16T02:50:08.606Z,79.10
2018-08-16T02:52:38.193Z,79.10
2018-08-16T02:55:08.362Z,78.90
2018-08-16T02:57:38.145Z,78.70
2018-08-16T03:00:09.816Z,79.10
2018-08-16T03:02:39.130Z,79.00
2018-08-16T03:05:08.571Z,79.00
2018-08-16T03:07:38.298Z,78.50
2018-08-16T03:10:09.261Z,78.70
2018-08-16T03:12:38.592Z,78.90
2018-08-16T03:15:10.077Z,78.50
2018-08-16T03:17:39.790Z,78.50
2018-08-16T03:20:09.299Z,78.60
2018-08-16T03:22:38.696Z,78.30
2018-08-16T03:25:08.312Z,78.10
2018-08-16T03:27:38.190Z,78.30
2018-08-16T03:30:08.237Z,78.20
2018-08-16T03:32:38.250Z,78.20
2018-08-16T03:35:08.311Z,78.30
2018-08-16T03:37:38.328Z,78.10
2018-08-16T03:40:08.617Z,78.10
2018-08-16T03:42:38.403Z,78.20
2018-08-16T03:45:08.932Z,78.10
2018-08-16T03:47:38.380Z,78.10
2018-08-16T03:50:08.925Z,78.00
2018-08-16T03:52:38.442Z,78.00
2018-08-16T03:55:08.369Z,78.00
2018-08-16T03:57:38.380Z,77.90
2018-08-16T04:00:08.886Z,78.00
2018-08-16T04:02:38.289Z,78.30
2018-08-16T04:05:08.779Z,78.20
2018-08-16T04:07:38.358Z,78.50
2018-08-16T04:10:08.353Z,78.40
2018-08-16T04:12:38.267Z,78.50
2018-08-16T04:15:08.291Z,78.60
2018-08-16T04:17:38.364Z,78.30
2018-08-16T04:20:08.363Z,79.00
2018-08-16T04:22:38.344Z,78.50
2018-08-16T04:25:08.440Z,78.60
2018-08-16T04:30:07.387Z,78.30
2018-08-16T04:32:36.732Z,78.10
2018-08-16T04:35:06.251Z,77.90
2018-08-16T04:37:35.567Z,77.90
2018-08-16T04:40:05.771Z,78.10
2018-08-16T04:42:35.115Z,77.70
2018-08-16T04:45:05.558Z,78.30
2018-08-16T04:47:34.953Z,77.60
2018-08-16T04:50:04.820Z,77.40
2018-08-16T04:52:34.121Z,77.40
2018-08-16T04:55:03.622Z,78.00
2018-08-16T04:57:32.956Z,77.20
2018-08-16T05:00:02.370Z,77.00
2018-08-16T05:02:31.696Z,77.10
2018-08-16T05:05:01.021Z,77.00
2018-08-16T05:07:30.309Z,76.90
2018-08-16T05:09:59.664Z,76.80
2018-08-16T05:12:28.966Z,76.00
2018-08-16T05:14:58.306Z,76.40
2018-08-16T05:17:27.648Z,76.50
2018-08-16T05:19:57.115Z,76.00
2018-08-16T05:22:26.437Z,75.90
2018-08-16T05:24:55.818Z,75.70
2018-08-16T05:27:25.167Z,75.60
2018-08-16T05:29:54.515Z,75.60
2018-08-16T05:32:23.899Z,75.90
2018-08-16T05:34:53.302Z,76.00
2018-08-16T05:37:22.721Z,75.20
2018-08-16T05:39:52.048Z,75.10
2018-08-16T05:42:21.454Z,74.70
2018-08-16T05:44:50.771Z,74.70
2018-08-16T05:47:20.173Z,74.30
2018-08-16T05:49:49.594Z,74.50
2018-08-16T05:52:19.007Z,74.30
2018-08-16T05:54:48.334Z,74.00
2018-08-16T05:57:17.676Z,74.80
2018-08-16T05:59:47.045Z,73.60
2018-08-16T06:02:16.410Z,73.50
2018-08-16T06:04:45.831Z,73.30
2018-08-16T06:07:15.189Z,73.00
2018-08-16T06:09:44.503Z,72.40
2018-08-16T06:12:13.844Z,72.00
2018-08-16T06:14:43.124Z,71.70
2018-08-16T06:17:12.548Z,71.50
2018-08-16T06:19:41.855Z,70.80
2018-08-16T06:22:11.245Z,70.90
2018-08-16T06:24:40.619Z,69.50
2018-08-16T06:27:09.962Z,70.60
2018-08-16T06:29:39.357Z,70.20
2018-08-16T06:32:08.795Z,70.00
2018-08-16T06:34:38.678Z,69.40
2018-08-16T06:37:08.662Z,69.20
2018-08-16T06:39:38.683Z,69.20
2018-08-16T06:42:09.241Z,68.60
2018-08-16T06:44:38.588Z,67.90
2018-08-16T06:47:08.710Z,68.20
2018-08-16T06:49:38.718Z,68.10
2018-08-16T06:52:08.783Z,69.90
2018-08-16T06:54:38.750Z,70.40
2018-08-16T06:57:09.147Z,69.60
2018-08-16T06:59:39.672Z,70.60
2018-08-16T07:02:09.014Z,69.10
2018-08-16T07:04:38.738Z,68.40
2018-08-16T07:07:09.205Z,68.10
2018-08-16T07:09:38.804Z,67.20
2018-08-16T07:12:08.813Z,65.50
2018-08-16T07:14:38.694Z,64.90
2018-08-16T07:17:09.778Z,66.00
2018-08-16T07:19:39.236Z,63.20
2018-08-16T07:22:08.861Z,63.60
2018-08-16T07:24:38.832Z,63.90
2018-08-16T07:27:08.857Z,63.70
2018-08-16T07:29:38.756Z,62.00
2018-08-16T07:32:08.920Z,61.20
2018-08-16T07:34:38.714Z,61.30
2018-08-16T07:37:08.851Z,60.90
2018-08-16T07:39:38.525Z,60.20
2018-08-16T07:42:08.885Z,59.90
2018-08-16T07:44:38.874Z,60.00
2018-08-16T07:47:08.798Z,59.30
2018-08-16T07:49:38.934Z,58.80
2018-08-16T07:52:08.935Z,58.50
2018-08-16T07:54:38.893Z,58.30
2018-08-16T07:57:09.011Z,57.90
2018-08-16T07:59:38.888Z,58.20
2018-08-16T08:02:08.955Z,57.70
2018-08-16T08:04:38.754Z,56.80
2018-08-16T08:07:08.930Z,56.40
2018-08-16T08:09:38.988Z,56.40
2018-08-16T08:12:08.851Z,57.30
2018-08-16T08:14:38.801Z,56.60
2018-08-16T08:17:08.810Z,55.40
2018-08-16T08:19:38.896Z,56.30
2018-08-16T08:22:08.851Z,55.20
2018-08-16T08:24:38.910Z,55.50
2018-08-16T08:27:08.829Z,55.50
2018-08-16T08:29:38.910Z,55.70
2018-08-16T08:32:08.876Z,55.20
2018-08-16T08:34:38.884Z,55.20
2018-08-16T08:37:25.684Z,55.20
2018-08-16T08:39:54.990Z,54.00
2018-08-16T08:42:24.282Z,54.70
2018-08-16T08:44:53.600Z,54.00
2018-08-16T08:47:27.082Z,53.60
2018-08-16T08:49:56.402Z,54.20
2018-08-16T08:52:25.751Z,55.00
2018-08-16T08:55:11.953Z,55.10
2018-08-16T08:58:01.045Z,55.90
2018-08-16T09:00:30.379Z,54.60
2018-08-16T09:02:59.700Z,52.50
2018-08-16T09:05:29.006Z,53.60
2018-08-16T09:07:58.329Z,52.80
2018-08-16T09:11:14.727Z,51.90
2018-08-16T09:14:04.193Z,52.20
2018-08-16T09:16:35.842Z,51.00
2018-08-16T09:19:05.798Z,51.00
2018-08-16T09:21:35.502Z,52.60
2018-08-16T09:24:04.959Z,52.90
2018-08-16T09:26:40.126Z,53.50
2018-08-16T09:29:34.375Z,53.10
2018-08-16T09:33:22.180Z,54.50
2018-08-16T09:35:51.493Z,52.90
2018-08-16T09:38:20.841Z,53.00
2018-08-16T09:40:50.165Z,53.40
2018-08-16T09:43:19.426Z,53.40
2018-08-16T09:47:07.855Z,53.80
2018-08-16T09:49:39.407Z,53.70
2018-08-16T09:52:10.200Z,53.90
2018-08-16T09:54:39.506Z,53.50
2018-08-16T09:57:10.170Z,53.80
2018-08-16T09:59:39.593Z,53.20
2018-08-16T10:02:11.373Z,53.20
2018-08-16T10:04:40.584Z,53.40
2018-08-16T10:07:09.902Z,53.80
2018-08-16T10:09:39.270Z,54.10
2018-08-16T10:12:09.171Z,53.60
2018-08-16T10:14:39.094Z,53.40
2018-08-16T10:17:09.111Z,52.70
2018-08-16T10:19:39.143Z,53.20
2018-08-16T10:22:09.062Z,53.40
2018-08-16T10:24:39.172Z,53.40
2018-08-16T10:27:09.256Z,52.80
2018-08-16T10:29:39.081Z,52.90
2018-08-16T10:32:09.138Z,52.00
2018-08-16T10:34:39.115Z,51.70
2018-08-16T10:37:09.130Z,51.30
2018-08-16T10:39:39.081Z,51.90
2018-08-16T10:42:09.146Z,52.60
2018-08-16T10:44:39.186Z,51.70
2018-08-16T10:47:09.175Z,51.70
2018-08-16T10:49:39.096Z,52.80
2018-08-16T10:52:09.232Z,51.80
2018-08-16T10:54:39.256Z,51.50
2018-08-16T10:57:09.173Z,51.80
2018-08-16T10:59:39.215Z,50.10
2018-08-16T11:02:09.236Z,50.60
2018-08-16T11:04:39.209Z,50.40
2018-08-16T11:07:09.173Z,50.40
2018-08-16T11:09:39.275Z,50.50
2018-08-16T11:12:09.186Z,49.80
2018-08-16T11:14:39.177Z,49.20
2018-08-16T11:17:09.161Z,47.70
2018-08-16T11:19:39.218Z,48.30
2018-08-16T11:22:09.312Z,47.50
2018-08-16T11:24:39.261Z,48.10
2018-08-16T11:27:09.273Z,48.20
2018-08-16T11:29:39.183Z,46.30
2018-08-16T11:32:09.354Z,46.70
2018-08-16T11:34:39.249Z,46.60
2018-08-16T11:37:09.238Z,46.60
2018-08-16T11:39:39.256Z,47.60
2018-08-16T11:42:09.223Z,47.50
2018-08-16T11:44:44.998Z,48.30
2018-08-16T11:47:14.599Z,48.80
2018-08-16T11:49:43.889Z,48.40
2018-08-16T11:52:13.226Z,48.40
2018-08-16T11:54:42.508Z,48.60
2018-08-16T11:57:11.828Z,48.10
2018-08-16T11:59:41.128Z,48.20
2018-08-16T12:02:10.488Z,47.00
2018-08-16T12:04:40.211Z,47.40
2018-08-16T12:07:09.525Z,46.80
2018-08-16T12:09:39.341Z,47.30
2018-08-16T12:12:09.358Z,47.90
2018-08-16T12:14:39.433Z,48.30
2018-08-16T12:17:09.391Z,48.90
2018-08-16T12:19:39.341Z,48.40
2018-08-16T12:22:09.329Z,49.20
2018-08-16T12:24:39.405Z,48.40
2018-08-16T12:27:09.470Z,49.50
2018-08-16T12:29:39.393Z,48.90
2018-08-16T12:32:09.495Z,48.40
2018-08-16T12:34:39.454Z,47.40
2018-08-16T12:37:09.428Z,46.70
2018-08-16T12:39:39.519Z,47.90
2018-08-16T12:42:09.510Z,47.90
2018-08-16T12:44:39.506Z,48.10
2018-08-16T12:47:09.505Z,47.70
2018-08-16T12:49:39.578Z,47.40
2018-08-16T12:52:09.642Z,47.30
2018-08-16T12:54:39.455Z,47.00
2018-08-16T12:57:09.494Z,47.60
2018-08-16T12:59:39.509Z,47.80
2018-08-16T13:02:09.627Z,48.10
2018-08-16T13:04:39.902Z,46.90
2018-08-16T13:07:09.533Z,46.90
2018-08-16T13:09:39.629Z,46.20
2018-08-16T13:12:09.568Z,47.20
2018-08-16T13:14:39.561Z,47.30
2018-08-16T13:17:09.518Z,47.10
2018-08-16T13:19:39.593Z,47.10
2018-08-16T13:22:09.600Z,46.20
2018-08-16T13:24:39.633Z,45.70
2018-08-16T13:27:09.701Z,46.40
2018-08-16T13:29:39.722Z,45.80
2018-08-16T13:32:09.590Z,46.30
2018-08-16T13:34:39.606Z,46.30
2018-08-16T13:37:09.725Z,46.70
2018-08-16T13:39:39.677Z,47.20
2018-08-16T13:42:09.716Z,47.30
2018-08-16T13:44:39.605Z,46.40
2018-08-16T13:47:09.719Z,46.50
2018-08-16T13:49:39.643Z,46.20
2018-08-16T13:52:10.011Z,45.70
2018-08-16T13:54:39.585Z,46.20
2018-08-16T13:57:09.734Z,46.10
2018-08-16T13:59:39.708Z,45.50
2018-08-16T14:02:09.722Z,46.90
2018-08-16T14:04:39.602Z,46.70
2018-08-16T14:07:09.624Z,46.70
2018-08-16T14:09:39.618Z,46.90
2018-08-16T14:12:09.768Z,47.10
2018-08-16T14:14:39.630Z,46.90
2018-08-16T14:17:09.711Z,47.10
2018-08-16T14:19:39.728Z,47.90
2018-08-16T14:22:09.730Z,48.00
2018-08-16T14:24:39.722Z,47.20
2018-08-16T14:27:09.711Z,47.20
2018-08-16T14:29:39.667Z,47.40
2018-08-16T14:32:09.753Z,46.70
2018-08-16T14:34:39.744Z,47.40
2018-08-16T14:37:09.744Z,47.60
2018-08-16T14:39:39.748Z,48.20
2018-08-16T14:42:09.723Z,47.90
2018-08-16T14:44:39.776Z,48.10
2018-08-16T14:47:09.823Z,48.40
2018-08-16T14:49:39.822Z,48.10
2018-08-16T14:52:09.800Z,48.30
2018-08-16T14:54:39.862Z,48.20
2018-08-16T14:57:09.818Z,47.80
2018-08-16T14:59:39.791Z,48.20
2018-08-16T15:02:09.824Z,48.20
2018-08-16T15:04:39.844Z,48.00
2018-08-16T15:07:09.900Z,48.10
2018-08-16T15:09:39.846Z,48.60
2018-08-16T15:12:09.984Z,48.40
2018-08-16T15:14:39.829Z,47.70
2018-08-16T15:17:09.822Z,48.20
2018-08-16T15:19:39.914Z,48.50
2018-08-16T15:22:09.877Z,48.80
2018-08-16T15:24:39.962Z,48.70
2018-08-16T15:27:09.907Z,48.90
2018-08-16T15:29:39.809Z,48.20
2018-08-16T15:32:09.946Z,49.30
2018-08-16T15:34:39.863Z,49.30
2018-08-16T15:37:09.968Z,49.50
2018-08-16T15:39:39.898Z,49.10
2018-08-16T15:42:09.997Z,49.20
2018-08-16T15:44:39.974Z,49.30
2018-08-16T15:47:09.932Z,49.90
2018-08-16T15:49:40.081Z,50.20
2018-08-16T15:52:10.029Z,50.60
2018-08-16T15:54:39.999Z,50.20
2018-08-16T15:57:09.964Z,50.50
2018-08-16T15:59:39.952Z,50.20
2018-08-16T16:02:10.003Z,50.70
2018-08-16T16:07:04.202Z,50.40
2018-08-16T16:09:33.575Z,50.90
2018-08-16T16:12:02.915Z,50.30
2018-08-16T16:14:32.250Z,50.70
2018-08-16T16:17:01.602Z,50.00
2018-08-16T16:19:31.006Z,50.20
2018-08-16T16:22:00.345Z,50.40
2018-08-16T16:24:29.705Z,50.50
2018-08-16T16:26:59.029Z,50.40
2018-08-16T16:29:28.407Z,49.80
2018-08-16T16:31:57.826Z,50.50
2018-08-16T16:34:27.141Z,50.90
2018-08-16T16:36:56.489Z,51.10
2018-08-16T16:39:25.840Z,50.50
2018-08-16T16:41:55.237Z,51.40
2018-08-16T16:44:24.550Z,50.90
2018-08-16T16:46:53.937Z,51.30
2018-08-16T16:49:23.634Z,51.10
2018-08-16T16:51:54.169Z,51.30
2018-08-16T16:54:23.560Z,50.90
2018-08-16T16:56:52.891Z,51.10
2018-08-16T16:59:22.229Z,51.40
2018-08-16T17:01:51.590Z,51.60
2018-08-16T17:04:20.947Z,51.10
2018-08-16T17:06:50.254Z,51.90
2018-08-16T17:09:19.577Z,51.80
2018-08-16T17:11:48.965Z,52.00
2018-08-16T17:14:18.334Z,52.50
2018-08-16T17:16:47.754Z,52.90
2018-08-16T17:19:17.074Z,53.20
2018-08-16T17:21:46.429Z,53.30
2018-08-16T17:24:15.770Z,53.50
2018-08-16T17:26:45.103Z,53.80
2018-08-16T17:29:14.452Z,53.90
2018-08-16T17:31:43.805Z,54.00
2018-08-16T17:34:13.196Z,54.20
2018-08-16T17:36:42.576Z,54.60
2018-08-16T17:39:11.942Z,54.70
2018-08-16T17:41:41.290Z,54.90
2018-08-16T17:44:10.761Z,54.90
2018-08-16T17:46:40.689Z,55.10
2018-08-16T17:49:10.794Z,55.40
2018-08-16T17:51:40.759Z,55.40
2018-08-16T17:54:10.903Z,55.70
2018-08-16T17:56:40.668Z,55.20
2018-08-16T17:59:10.722Z,55.70
2018-08-16T18:01:40.723Z,55.60
2018-08-16T18:04:10.773Z,55.70
2018-08-16T18:06:40.695Z,55.80
2018-08-16T18:09:10.783Z,55.90
2018-08-16T18:11:40.803Z,56.20
2018-08-16T18:14:10.810Z,56.50
2018-08-16T18:16:40.820Z,56.70
2018-08-16T18:19:10.861Z,56.80
2018-08-16T18:21:41.077Z,57.40
2018-08-16T18:24:10.893Z,57.30
2018-08-16T18:26:40.917Z,57.60
2018-08-16T18:29:10.930Z,57.70
2018-08-16T18:31:41.210Z,58.10
2018-08-16T18:34:10.813Z,58.40
2018-08-16T18:36:40.867Z,58.40
2018-08-16T18:39:11.080Z,58.40
2018-08-16T18:41:40.900Z,58.90
2018-08-16T18:44:10.902Z,58.80
2018-08-16T18:46:40.804Z,59.30
2018-08-16T18:49:10.846Z,59.30
2018-08-16T18:51:40.913Z,59.00
2018-08-16T18:54:10.850Z,58.90
2018-08-16T18:56:40.858Z,59.70
2018-08-16T18:59:10.847Z,60.40
2018-08-16T19:01:40.818Z,61.20
2018-08-16T19:04:10.853Z,61.90
2018-08-16T19:06:40.941Z,62.20
2018-08-16T19:09:10.832Z,62.60
2018-08-16T19:11:40.873Z,62.80
2018-08-16T19:14:10.950Z,62.80
2018-08-16T19:16:40.984Z,63.00
2018-08-16T19:19:10.972Z,63.30
2018-08-16T19:21:40.979Z,62.50
2018-08-16T19:24:10.921Z,63.20
2018-08-16T19:26:40.938Z,63.30
2018-08-16T19:29:10.904Z,63.60
2018-08-16T19:31:41.104Z,63.30
2018-08-16T19:34:10.977Z,63.60
2018-08-16T19:36:41.079Z,63.90
2018-08-16T19:39:12.663Z,63.90
2018-08-16T19:41:42.011Z,64.30
2018-08-16T19:44:11.365Z,64.40
2018-08-16T19:46:41.032Z,64.80
2018-08-16T19:49:11.042Z,65.20
2018-08-16T19:51:41.050Z,65.20
2018-08-16T19:54:11.062Z,65.40
2018-08-16T19:56:41.049Z,65.40
2018-08-16T19:59:11.135Z,65.80
2018-08-16T20:01:41.060Z,67.30
2018-08-16T20:04:11.066Z,67.10
2018-08-16T20:06:41.082Z,67.10
2018-08-16T20:09:11.510Z,68.00
2018-08-16T20:11:41.161Z,68.50
2018-08-16T20:14:17.838Z,68.40
2018-08-16T20:16:47.178Z,68.50
2018-08-16T20:19:16.549Z,68.50
2018-08-16T20:21:45.920Z,68.30
2018-08-16T20:24:15.286Z,68.60
2018-08-16T20:26:44.582Z,68.90
2018-08-16T20:29:13.872Z,68.70
2018-08-16T20:31:43.214Z,68.70
2018-08-16T20:34:12.539Z,68.70
2018-08-16T20:36:41.869Z,69.00
2018-08-16T20:39:11.266Z,68.60
2018-08-16T20:41:41.192Z,68.80
2018-08-16T20:44:11.236Z,68.80
2018-08-16T20:46:41.140Z,68.80
2018-08-16T20:49:11.274Z,68.80
2018-08-16T20:51:41.267Z,68.90
2018-08-16T20:54:11.243Z,68.80
2018-08-16T20:56:41.171Z,69.00
2018-08-16T20:59:11.191Z,69.20
2018-08-16T21:01:41.235Z,69.20
2018-08-16T21:04:11.290Z,68.60
2018-08-16T21:06:41.202Z,69.30
2018-08-16T21:09:11.862Z,69.40
2018-08-16T21:11:41.193Z,69.70
2018-08-16T21:14:11.556Z,69.70
2018-08-16T21:16:41.226Z,69.60
2018-08-16T21:19:11.302Z,69.90
2018-08-16T21:21:41.361Z,70.20
2018-08-16T21:24:11.295Z,70.20
2018-08-16T21:26:41.429Z,70.30
2018-08-16T21:29:11.266Z,70.20
2018-08-16T21:31:41.307Z,70.50
2018-08-16T21:34:11.367Z,70.60
2018-08-16T21:36:41.359Z,70.40
2018-08-16T21:39:12.462Z,70.80
2018-08-16T21:41:41.800Z,71.20
2018-08-16T21:44:11.801Z,71.20
2018-08-16T21:46:41.368Z,70.90
2018-08-16T21:49:11.383Z,71.40
2018-08-16T21:51:41.329Z,71.60
2018-08-16T21:54:11.445Z,71.70
2018-08-16T21:56:41.423Z,71.90
2018-08-16T21:59:11.481Z,71.70
2018-08-16T22:01:41.361Z,71.80
2018-08-16T22:04:11.973Z,72.20
2018-08-16T22:06:58.340Z,72.20
2018-08-16T22:09:27.747Z,72.40
2018-08-16T22:11:57.131Z,72.50
2018-08-16T22:14:26.459Z,72.50
2018-08-16T22:16:55.796Z,72.80
2018-08-16T22:19:25.119Z,72.90
2018-08-16T22:21:54.468Z,72.90
2018-08-16T22:24:23.821Z,73.10
2018-08-16T22:26:53.187Z,73.10
2018-08-16T22:29:22.578Z,73.20
2018-08-16T22:31:51.933Z,73.10
2018-08-16T22:34:21.245Z,73.70
2018-08-16T22:36:57.072Z,74.10
2018-08-16T22:39:26.396Z,73.60
2018-08-16T22:41:55.710Z,74.00
2018-08-16T22:44:25.045Z,73.80
2018-08-16T22:46:54.390Z,73.80
2018-08-16T22:49:23.756Z,74.10
2018-08-16T22:51:53.159Z,74.10
2018-08-16T22:54:22.424Z,74.50
2018-08-16T22:56:51.768Z,74.70
2018-08-16T22:59:21.059Z,74.60
2018-08-16T23:01:50.428Z,75.00
2018-08-16T23:04:19.744Z,75.00
2018-08-16T23:06:49.083Z,74.90
2018-08-16T23:09:18.417Z,75.20
2018-08-16T23:11:47.721Z,74.60
2018-08-16T23:14:17.054Z,74.80
2018-08-16T23:16:46.400Z,74.90
2018-08-16T23:19:15.767Z,75.70
2018-08-16T23:21:45.129Z,75.00
2018-08-16T23:24:14.463Z,75.00
2018-08-16T23:26:43.803Z,75.30
2018-08-16T23:29:13.441Z,75.20
2018-08-16T23:31:42.785Z,75.50
2018-08-16T23:34:12.101Z,75.70
2018-08-16T23:36:41.661Z,75.60
2018-08-16T23:39:11.623Z,76.70
2018-08-16T23:41:41.591Z,75.40
2018-08-16T23:44:11.571Z,75.90
2018-08-16T23:46:41.685Z,75.90
2018-08-16T23:49:11.607Z,76.00
2018-08-16T23:51:41.716Z,76.00
2018-08-16T23:54:11.703Z,76.30
2018-08-16T23:56:41.657Z,76.30
2018-08-16T23:59:11.681Z,76.20
